Terminal Aerodrome Forecast
Issued by NWS Upton, NY

Current Version | Previous Version | Text Only | Print | Product List | Glossary On
Versions: 1 2 3 4 5 6 7 8 9 10 11 12 13 14 15 16 17 18 19 20 21 22 23 24 25 26 27 28 29 30 31
171
FTUS41 KOKX 222321
TAFJFK
TAF
KJFK 222321Z 2300/2406 10012KT P6SM SCT050 BKN100
     FM230100 10008KT P6SM OVC008
     FM230400 12006KT 6SM BR SCT008 OVC070 WS020/20035KT
     FM230900 16009KT 5SM BR OVC008 WS020/20040KT
     FM231100 17011G21KT 3SM -SHRA BR OVC008 WS020/21045KT
     FM231400 18017G27KT 3SM SHRA BR OVC011 WS020/20055KT
     FM231900 20015G24KT 4SM -SHRA BR BKN022 WS020/21050KT
     FM232000 22014G23KT P6SM VCSH BKN035
     FM232300 26014G22KT P6SM SCT060=

USA.gov is the U.S. government's official web portal to all federal, state and local government web resources and services.